»·PEaware :: N212MH KEWR-KJFK

N212MH :: KEWR-KJFK

FLIGHT INFORMATION

Flight Status: Arrived
Operator: Privately registered:
United States
More flights under this callsign
Pilot: Erik A. (17503)
Aircraft: AERMACCHI WARRIOR
(F260)
More flights by this aircraft type
Origin: KEWR Newark Intl
United States
Destination: KJFK Kennedy Intl
United States
More flights between these airports :: More routes between these airports
Route: EWR4 BREZY V39 CMK V419 JUDDS NELIE MAD V1 DPK
File this flight plan on PilotEdge
Remarks:
Altitude:
(Current/Filed)
11,000ft
Speed:
(Current/Filed)
160kts
Departed: 07-Dec-22 12:28 PM
Arrived: 07-Dec-22 01:23 PM
Distance/Time
Traveled:
17nm/0:55
Distance/Time
To Go:
Arrived

Flight Plot

Page will automatically refresh every two minutes.

Flight plan parsing failed; only flown route is shown


Map Options




Map Legend


Flown Route
Filed Route
Departure Airport
Arrival Airport
Navaid (VOR, NDB)
Fix

Horizontal Profiles

Position Reports

Time Latitude Longitude Heading Altitude Ground
Speed
07-Dec-22 12:13 40.676181 -74.182481 79 10ft 0kts
07-Dec-22 12:14 40.676181 -74.182481 79 10ft 0kts
07-Dec-22 12:15 40.676181 -74.182481 79 10ft 0kts
07-Dec-22 12:16 40.676181 -74.182481 79 10ft 0kts
07-Dec-22 12:17 40.676181 -74.182481 79 10ft 0kts
07-Dec-22 12:18 40.676181 -74.182481 79 10ft 0kts
07-Dec-22 12:19 40.676181 -74.182481 79 10ft 0kts
07-Dec-22 12:20 40.676181 -74.182481 79 10ft 0kts
07-Dec-22 12:21 40.676181 -74.182481 79 10ft 0kts
07-Dec-22 12:22 40.676181 -74.182481 79 10ft 0kts
07-Dec-22 12:24 40.676181 -74.182481 79 10ft 0kts
07-Dec-22 12:25 40.676271 -74.181065 94 10ft 10kts
07-Dec-22 12:26 40.676066 -74.180475 122 10ft 0kts
07-Dec-22 12:27 40.676034 -74.180408 121 10ft 4kts
07-Dec-22 12:28 40.683425 -74.174458 26 42ft 109kts
07-Dec-22 12:29 40.713096 -74.148245 49 1216ft 126kts
07-Dec-22 12:30 40.734467 -74.114479 46 2702ft 118kts
07-Dec-22 12:31 40.760988 -74.093935 341 3890ft 126kts
07-Dec-22 12:32 40.778846 -74.128030 273 5144ft 116kts
07-Dec-22 12:33 40.782934 -74.171939 275 6066ft 122kts
07-Dec-22 12:34 40.786480 -74.216359 276 6937ft 122kts
07-Dec-22 12:35 40.814098 -74.234670 353 7605ft 124kts
07-Dec-22 12:36 40.847737 -74.242071 353 8283ft 123kts
07-Dec-22 12:37 40.880380 -74.245244 20 8957ft 117kts
07-Dec-22 12:38 40.916232 -74.231605 18 9004ft 145kts
07-Dec-22 12:39 40.955888 -74.215628 18 9000ft 151kts
07-Dec-22 12:40 40.996191 -74.199649 18 9100ft 146kts
07-Dec-22 12:41 41.032942 -74.185237 18 9573ft 132kts
07-Dec-22 12:42 41.067552 -74.171481 18 10061ft 127kts
07-Dec-22 12:43 41.100800 -74.158225 17 10550ft 123kts
07-Dec-22 12:44 41.133142 -74.145290 18 10995ft 123kts
07-Dec-22 12:44 41.159834 -74.127622 65 11010ft 138kts
07-Dec-22 12:46 41.167880 -74.067216 85 11001ft 145kts
07-Dec-22 12:47 41.163080 -74.014570 97 11000ft 146kts
07-Dec-22 12:48 41.158141 -73.960544 99 10998ft 148kts
07-Dec-22 12:48 41.154414 -73.914470 96 10999ft 151kts
07-Dec-22 12:49 41.149594 -73.858688 99 10999ft 152kts
07-Dec-22 12:51 41.143167 -73.793381 97 10999ft 153kts
07-Dec-22 12:51 41.138684 -73.746789 97 10999ft 153kts
07-Dec-22 12:52 41.133378 -73.690685 97 10999ft 153kts
07-Dec-22 12:53 41.128100 -73.634596 98 10999ft 153kts
07-Dec-22 12:55 41.121673 -73.568735 98 10999ft 155kts
07-Dec-22 12:55 41.117043 -73.521154 98 10999ft 156kts
07-Dec-22 12:56 41.111745 -73.463977 97 10999ft 156kts
07-Dec-22 12:57 41.112860 -73.407120 74 11001ft 157kts
07-Dec-22 12:58 41.124212 -73.350892 75 11000ft 158kts
07-Dec-22 12:59 41.132056 -73.294361 111 10996ft 155kts
07-Dec-22 13:00 41.119848 -73.239499 106 11000ft 155kts
07-Dec-22 13:01 41.107902 -73.184307 110 10999ft 155kts
07-Dec-22 13:02 41.095713 -73.129178 108 10999ft 156kts
07-Dec-22 13:03 41.083175 -73.074300 119 10994ft 155kts
07-Dec-22 13:04 41.048908 -73.084445 213 11000ft 147kts
07-Dec-22 13:05 41.010905 -73.116492 214 10296ft 173kts
07-Dec-22 13:06 40.969860 -73.152018 214 9499ft 178kts
07-Dec-22 13:07 40.928401 -73.187672 214 8698ft 179kts
07-Dec-22 13:08 40.886592 -73.223502 213 7896ft 180kts
07-Dec-22 13:09 40.844501 -73.259193 213 7100ft 180kts
07-Dec-22 13:10 40.802103 -73.295280 216 6206ft 184kts
07-Dec-22 13:11 40.787109 -73.357510 262 5227ft 186kts
07-Dec-22 13:12 40.780457 -73.425603 262 4228ft 187kts
07-Dec-22 13:13 40.773924 -73.494087 262 3230ft 189kts
07-Dec-22 13:14 40.767420 -73.561499 262 2525ft 177kts
07-Dec-22 13:15 40.761381 -73.620875 259 2496ft 154kts
07-Dec-22 13:16 40.735584 -73.657923 221 2245ft 143kts
07-Dec-22 13:17 40.719455 -73.693188 251 1882ft 130kts
07-Dec-22 13:18 40.702930 -73.723792 207 1274ft 89kts
07-Dec-22 13:19 40.680262 -73.739566 213 727ft 82kts
07-Dec-22 13:20 40.660892 -73.755016 212 475ft 78kts
07-Dec-22 13:21 40.644008 -73.768313 210 54ft 65kts
07-Dec-22 13:22 40.636257 -73.775708 290 10ft 0kts
07-Dec-22 13:23 40.636288 -73.775817 295 10ft 2kts
07-Dec-22 13:24 40.634664 -73.778591 210 7ft 9kts
07-Dec-22 13:25 40.635581 -73.783533 294 7ft 12kts
07-Dec-22 13:26 40.637135 -73.787121 306 8ft 11kts
07-Dec-22 13:27 40.639433 -73.792211 301 9ft 23kts
07-Dec-22 13:28 40.642773 -73.798762 313 9ft 21kts
07-Dec-22 13:29 40.645807 -73.805083 300 10ft 20kts
07-Dec-22 13:30 40.648620 -73.811195 323 10ft 15kts
07-Dec-22 13:31 40.650004 -73.809799 323 11ft 0kts
07-Dec-22 13:32 40.650004 -73.809799 323 11ft 0kts
07-Dec-22 13:33 40.650004 -73.809799 323 11ft 0kts
07-Dec-22 13:34 40.650004 -73.809799 323 11ft 0kts
07-Dec-22 13:35 40.650004 -73.809799 323 11ft 0kts

Navigation Log

Ident Type
Flight plan parsing failed, navigation log unavailable